createdAt,value
2022-08-21T00:00:09.656Z,15.94
2022-08-21T00:01:18.148Z,14.13
2022-08-21T00:02:28.613Z,14.25
2022-08-21T00:03:32.410Z,10.06
2022-08-21T00:04:48.237Z,14.19
2022-08-21T00:05:46.927Z,15.69
2022-08-21T00:06:52.870Z,13.44
2022-08-21T00:08:00.290Z,14.87
2022-08-21T00:09:07.264Z,14.63
2022-08-21T00:10:13.007Z,17.00
2022-08-21T00:11:17.097Z,14.44
2022-08-21T00:12:21.472Z,13.69
2022-08-21T00:13:25.602Z,15.19
2022-08-21T00:14:32.010Z,13.44
2022-08-21T00:15:38.439Z,16.37
2022-08-21T00:16:44.536Z,14.44
2022-08-21T00:18:06.541Z,11.50
2022-08-21T00:19:01.485Z,13.31
2022-08-21T00:20:10.290Z,12.56
2022-08-21T00:21:31.072Z,15.06
2022-08-21T00:23:35.728Z,12.75
2022-08-21T00:24:41.291Z,12.13
2022-08-21T00:25:41.160Z,12.37
2022-08-21T00:25:48.415Z,15.06
2022-08-21T00:26:57.438Z,11.94
2022-08-21T00:28:00.027Z,11.63
2022-08-21T00:29:05.621Z,12.81
2022-08-21T00:30:23.001Z,13.19
2022-08-21T00:31:18.495Z,14.13
2022-08-21T00:32:26.818Z,14.69
2022-08-21T00:33:31.178Z,13.06
2022-08-21T00:34:35.363Z,15.31
2022-08-21T00:35:42.081Z,15.50
2022-08-21T00:36:46.701Z,13.44
2022-08-21T00:37:51.141Z,12.88
2022-08-21T00:38:55.274Z,16.87
2022-08-21T00:39:59.491Z,15.13
2022-08-21T00:41:27.568Z,14.25
2022-08-21T00:42:12.860Z,22.62
2022-08-21T00:43:19.965Z,21.87
2022-08-21T00:44:24.021Z,21.62
2022-08-21T00:45:28.123Z,19.81
2022-08-21T00:46:32.370Z,21.62
2022-08-21T00:47:36.415Z,15.38
2022-08-21T00:48:40.451Z,15.63
2022-08-21T00:49:45.455Z,14.31
2022-08-21T00:51:07.664Z,10.19
2022-08-21T00:52:14.673Z,14.81
2022-08-21T00:53:19.860Z,13.75
2022-08-21T00:54:26.522Z,4.75
2022-08-21T00:55:33.891Z,14.81
2022-08-21T00:56:38.984Z,12.63
2022-08-21T00:57:47.696Z,15.75
2022-08-21T00:58:55.328Z,16.19
2022-08-21T01:00:03.628Z,10.19
2022-08-21T01:01:11.733Z,12.56
2022-08-21T01:02:17.253Z,13.62
2022-08-21T01:03:24.030Z,12.69
2022-08-21T01:04:28.364Z,15.94
2022-08-21T01:05:35.024Z,13.00
2022-08-21T01:06:38.939Z,9.19
2022-08-21T01:07:43.568Z,12.88
2022-08-21T01:08:48.171Z,15.88
2022-08-21T01:09:52.594Z,12.00
2022-08-21T01:10:57.914Z,12.19
2022-08-21T01:12:02.855Z,13.88
2022-08-21T01:13:11.131Z,15.63
2022-08-21T01:14:16.182Z,13.56
2022-08-21T01:15:21.019Z,14.19
2022-08-21T01:16:25.909Z,14.19
2022-08-21T01:17:34.735Z,12.25
2022-08-21T01:18:39.020Z,13.31
2022-08-21T01:19:44.906Z,14.87
2022-08-21T01:21:03.906Z,14.50
2022-08-21T01:22:07.936Z,15.38
2022-08-21T01:23:12.060Z,11.88
2022-08-21T01:24:16.153Z,10.88
2022-08-21T01:25:20.434Z,11.50
2022-08-21T01:26:32.682Z,11.94
2022-08-21T01:27:38.561Z,14.00
2022-08-21T01:28:45.570Z,11.63
2022-08-21T01:30:01.691Z,12.75
2022-08-21T01:31:10.654Z,14.06
2022-08-21T01:32:18.065Z,14.56
2022-08-21T01:33:25.307Z,13.56
2022-08-21T01:34:29.447Z,11.31
2022-08-21T01:35:33.484Z,13.13
2022-08-21T01:36:37.646Z,10.88
2022-08-21T01:37:41.870Z,13.19
2022-08-21T01:38:50.310Z,11.06
2022-08-21T01:39:54.378Z,12.50
2022-08-21T01:40:58.477Z,13.06
2022-08-21T01:42:03.114Z,15.13
2022-08-21T01:43:07.589Z,12.63
2022-08-21T01:44:11.628Z,13.19
2022-08-21T01:45:16.429Z,13.50
2022-08-21T01:46:21.599Z,12.94
2022-08-21T01:47:25.731Z,12.06
2022-08-21T01:48:29.755Z,13.44
2022-08-21T01:49:33.798Z,12.88
2022-08-21T01:50:38.736Z,13.94
2022-08-21T01:51:42.942Z,13.75
2022-08-21T01:52:47.353Z,12.63
2022-08-21T01:53:51.762Z,14.38
2022-08-21T01:54:55.874Z,12.19
2022-08-21T01:56:02.252Z,11.75
2022-08-21T01:57:07.466Z,13.06
2022-08-21T01:58:12.807Z,11.31
2022-08-21T01:59:16.928Z,11.25
2022-08-21T02:00:23.645Z,10.88
2022-08-21T02:01:27.785Z,9.25
2022-08-21T02:02:31.898Z,12.19
2022-08-21T02:03:37.994Z,12.94
2022-08-21T02:04:41.953Z,11.25
2022-08-21T02:05:47.720Z,11.00
2022-08-21T02:06:52.145Z,14.19
2022-08-21T02:07:56.442Z,14.00
2022-08-21T02:09:00.442Z,12.56
2022-08-21T02:10:05.982Z,11.56
2022-08-21T02:11:10.135Z,13.31
2022-08-21T02:12:14.180Z,17.00
2022-08-21T02:13:18.730Z,14.38
2022-08-21T02:14:32.450Z,14.44
2022-08-21T02:15:30.628Z,12.81
2022-08-21T02:16:35.141Z,12.50
2022-08-21T02:17:49.823Z,13.75
2022-08-21T02:18:55.206Z,13.25
2022-08-21T02:19:59.350Z,13.13
2022-08-21T02:21:06.824Z,12.06
2022-08-21T02:22:12.827Z,15.38
2022-08-21T02:23:18.670Z,15.00
2022-08-21T02:24:27.287Z,11.63
2022-08-21T02:25:31.493Z,11.56
2022-08-21T02:26:36.196Z,14.94
2022-08-21T02:27:42.695Z,11.75
2022-08-21T02:28:46.765Z,12.06
2022-08-21T02:29:50.754Z,13.06
2022-08-21T02:30:55.943Z,12.69
2022-08-21T02:32:00.110Z,11.75
2022-08-21T02:33:04.267Z,14.25
2022-08-21T02:34:08.255Z,13.06
2022-08-21T02:35:14.732Z,13.94
2022-08-21T02:36:19.730Z,12.50
2022-08-21T02:37:24.332Z,16.25
2022-08-21T02:38:31.404Z,14.94
2022-08-21T02:39:37.053Z,13.25
2022-08-21T02:40:48.259Z,14.25
2022-08-21T02:41:52.362Z,12.94
2022-08-21T02:42:56.553Z,13.81
2022-08-21T02:44:02.302Z,10.13
2022-08-21T02:45:07.436Z,12.31
2022-08-21T02:46:15.184Z,15.75
2022-08-21T02:47:19.361Z,14.00
2022-08-21T02:48:26.507Z,14.13
2022-08-21T02:49:30.537Z,10.94
2022-08-21T02:50:41.099Z,15.00
2022-08-21T02:51:46.635Z,11.94
2022-08-21T02:52:55.150Z,11.63
2022-08-21T02:53:58.033Z,9.88
2022-08-21T02:55:05.675Z,11.81
2022-08-21T02:56:11.298Z,10.50
2022-08-21T02:57:15.366Z,12.88
2022-08-21T02:58:22.206Z,10.31
2022-08-21T02:59:26.246Z,9.06
2022-08-21T03:00:32.104Z,10.81
2022-08-21T03:01:36.305Z,11.31
2022-08-21T03:02:40.508Z,11.88
2022-08-21T03:03:46.506Z,8.44
2022-08-21T03:04:52.898Z,12.81
2022-08-21T03:05:57.440Z,12.50
2022-08-21T03:07:02.263Z,11.12
2022-08-21T03:08:08.761Z,12.81
2022-08-21T03:09:12.736Z,7.75
2022-08-21T03:10:18.530Z,11.81
2022-08-21T03:11:24.412Z,11.06
2022-08-21T03:12:29.825Z,11.63
2022-08-21T03:13:34.935Z,11.19
2022-08-21T03:14:40.936Z,12.94
2022-08-21T03:15:45.166Z,11.50
2022-08-21T03:16:49.231Z,10.38
2022-08-21T03:17:53.779Z,9.31
2022-08-21T03:18:59.872Z,13.75
2022-08-21T03:20:05.181Z,12.50
2022-08-21T03:21:09.262Z,11.38
2022-08-21T03:22:13.302Z,13.00
2022-08-21T03:23:19.101Z,12.37
2022-08-21T03:24:23.620Z,9.25
2022-08-21T03:25:40.377Z,10.56
2022-08-21T03:26:35.433Z,10.25
2022-08-21T03:27:39.874Z,9.63
2022-08-21T03:28:45.565Z,9.56
2022-08-21T03:29:49.528Z,13.31
2022-08-21T03:30:54.327Z,12.50
2022-08-21T03:31:58.328Z,13.19
2022-08-21T03:33:02.638Z,10.56
2022-08-21T03:34:09.151Z,12.88
2022-08-21T03:35:13.546Z,10.81
2022-08-21T03:36:19.128Z,5.62
2022-08-21T03:37:23.097Z,9.00
2022-08-21T03:38:29.449Z,11.44
2022-08-21T03:39:33.843Z,10.56
2022-08-21T03:40:38.057Z,7.25
2022-08-21T03:41:42.253Z,9.13
2022-08-21T03:42:47.690Z,10.19
2022-08-21T03:43:51.715Z,9.56
2022-08-21T03:44:58.787Z,9.00
2022-08-21T03:46:05.088Z,6.94
2022-08-21T03:47:09.121Z,8.63
2022-08-21T03:48:13.427Z,9.75
2022-08-21T03:49:17.632Z,8.69
2022-08-21T03:50:24.474Z,10.06
2022-08-21T03:51:28.507Z,9.63
2022-08-21T03:52:32.508Z,8.75
2022-08-21T03:53:36.625Z,9.81
2022-08-21T03:54:40.835Z,12.00
2022-08-21T03:55:46.852Z,20.00
2022-08-21T03:56:50.900Z,33.50
2022-08-21T03:57:55.336Z,24.56
2022-08-21T03:58:59.641Z,20.12
2022-08-21T04:00:05.648Z,42.50
2022-08-21T04:01:11.430Z,26.56
2022-08-21T04:02:20.660Z,33.63
2022-08-21T04:03:24.789Z,28.44
2022-08-21T04:04:30.510Z,17.00
2022-08-21T04:05:34.713Z,13.44
2022-08-21T04:06:39.059Z,4.69
2022-08-21T04:07:43.079Z,12.00
2022-08-21T04:08:48.676Z,7.50
2022-08-21T04:09:55.450Z,6.87
2022-08-21T04:10:59.691Z,7.19
2022-08-21T04:12:05.642Z,6.31
2022-08-21T04:13:10.247Z,10.38
2022-08-21T04:14:15.460Z,11.88
2022-08-21T04:15:21.421Z,10.94
2022-08-21T04:16:27.064Z,8.69
2022-08-21T04:17:31.014Z,7.94
2022-08-21T04:18:36.751Z,6.69
2022-08-21T04:19:40.830Z,10.69
2022-08-21T04:20:50.207Z,11.56
2022-08-21T04:21:53.211Z,10.06
2022-08-21T04:22:58.165Z,7.19
2022-08-21T04:24:02.387Z,11.63
2022-08-21T04:25:06.930Z,10.88
2022-08-21T04:26:12.206Z,11.38
2022-08-21T04:27:16.193Z,11.75
2022-08-21T04:28:20.447Z,10.25
2022-08-21T04:29:24.417Z,9.94
2022-08-21T04:30:31.569Z,9.13
2022-08-21T04:31:36.884Z,9.63
2022-08-21T04:32:49.796Z,9.81
2022-08-21T04:33:53.901Z,8.88
2022-08-21T04:35:02.933Z,9.13
2022-08-21T04:36:07.363Z,9.38
2022-08-21T04:37:11.387Z,11.63
2022-08-21T04:38:15.431Z,10.44
2022-08-21T04:39:19.475Z,10.13
2022-08-21T04:40:27.643Z,9.63
2022-08-21T04:41:31.792Z,13.62
2022-08-21T04:42:38.896Z,27.37
2022-08-21T04:43:42.993Z,38.60
2022-08-21T04:44:49.274Z,50.27
2022-08-21T04:45:53.901Z,51.31
2022-08-21T04:46:59.572Z,57.13
2022-08-21T04:48:09.570Z,62.88
2022-08-21T04:49:12.197Z,58.00
2022-08-21T04:50:16.794Z,56.94
2022-08-21T04:51:37.121Z,56.19
2022-08-21T04:52:41.254Z,45.25
2022-08-21T04:53:54.270Z,10.63
2022-08-21T04:54:58.365Z,7.87
2022-08-21T04:56:12.750Z,8.69
2022-08-21T04:57:17.924Z,9.81
2022-08-21T04:58:26.438Z,8.75
2022-08-21T04:59:33.427Z,10.44
2022-08-21T05:00:37.984Z,8.06
2022-08-21T05:01:42.849Z,10.44
2022-08-21T05:02:47.884Z,9.81
2022-08-21T05:03:56.429Z,7.69
2022-08-21T05:05:01.532Z,10.00
2022-08-21T05:06:07.993Z,8.19
2022-08-21T05:07:14.948Z,8.38
2022-08-21T05:08:21.982Z,9.38
2022-08-21T05:09:26.717Z,7.44
2022-08-21T05:10:32.718Z,9.69
2022-08-21T05:11:37.841Z,40.73
2022-08-21T05:12:45.457Z,61.69
2022-08-21T05:13:52.343Z,70.31
2022-08-21T05:14:55.917Z,54.94
2022-08-21T05:16:00.100Z,67.81
2022-08-21T05:17:04.491Z,57.56
2022-08-21T05:18:08.699Z,88.56
2022-08-21T05:19:14.596Z,107.00
2022-08-21T05:20:22.101Z,89.13
2022-08-21T05:21:26.082Z,76.87
2022-08-21T05:22:31.677Z,75.37
2022-08-21T05:23:38.269Z,68.40
2022-08-21T05:24:41.494Z,72.53
2022-08-21T05:25:45.725Z,86.33
2022-08-21T05:26:50.449Z,88.27
2022-08-21T05:27:54.590Z,86.67
2022-08-21T05:28:59.510Z,95.38
2022-08-21T05:30:05.726Z,94.94
2022-08-21T05:31:09.857Z,95.50
2022-08-21T05:32:20.006Z,111.69
2022-08-21T05:33:25.491Z,96.60
2022-08-21T05:34:29.644Z,89.27
2022-08-21T05:35:34.435Z,98.60
2022-08-21T05:36:41.275Z,92.31
2022-08-21T05:37:46.896Z,90.12
2022-08-21T05:38:51.528Z,110.81
2022-08-21T05:40:20.760Z,94.31
2022-08-21T05:41:03.505Z,105.31
2022-08-21T05:42:08.071Z,95.81
2022-08-21T05:43:14.092Z,71.25
2022-08-21T05:44:17.775Z,95.19
2022-08-21T05:45:41.321Z,166.69
2022-08-21T05:46:32.038Z,215.00
2022-08-21T05:47:38.772Z,158.71
2022-08-21T05:48:42.898Z,105.56
2022-08-21T05:49:46.965Z,95.81
2022-08-21T05:50:53.283Z,74.47
2022-08-21T05:51:58.513Z,82.75
2022-08-21T05:53:07.060Z,101.62
2022-08-21T05:54:09.950Z,169.12
2022-08-21T05:55:14.282Z,191.00
2022-08-21T05:56:18.933Z,175.75
2022-08-21T05:57:26.095Z,133.94
2022-08-21T05:58:30.130Z,55.47
2022-08-21T05:59:35.372Z,95.38
2022-08-21T06:00:42.420Z,104.73
2022-08-21T06:01:46.717Z,112.31
2022-08-21T06:02:51.598Z,103.12
2022-08-21T06:03:56.775Z,105.93
2022-08-21T06:05:01.292Z,105.40
2022-08-21T06:06:06.966Z,113.06
2022-08-21T06:07:13.020Z,112.12
2022-08-21T06:08:17.963Z,101.87
2022-08-21T06:09:21.997Z,103.06
2022-08-21T06:10:27.737Z,97.25
2022-08-21T06:11:32.277Z,114.94
2022-08-21T06:12:36.335Z,84.00
2022-08-21T06:13:41.611Z,101.44
2022-08-21T06:14:45.756Z,114.12
2022-08-21T06:15:50.383Z,110.94
2022-08-21T06:16:54.451Z,109.06
2022-08-21T06:18:00.120Z,117.94
2022-08-21T06:19:04.194Z,108.06
2022-08-21T06:20:10.851Z,120.13
2022-08-21T06:21:15.394Z,113.19
2022-08-21T06:22:20.529Z,73.25
2022-08-21T06:23:24.530Z,79.07
2022-08-21T06:24:30.729Z,55.44
2022-08-21T06:25:34.885Z,67.75
2022-08-21T06:26:39.841Z,66.73
2022-08-21T06:27:43.866Z,56.06
2022-08-21T06:28:50.160Z,59.63
2022-08-21T06:29:54.299Z,50.94
2022-08-21T06:30:58.504Z,47.20
2022-08-21T06:32:05.188Z,34.63
2022-08-21T06:33:09.490Z,38.06
2022-08-21T06:34:13.665Z,33.25
2022-08-21T06:35:17.614Z,40.50
2022-08-21T06:36:23.524Z,36.19
2022-08-21T06:37:29.219Z,37.07
2022-08-21T06:38:34.832Z,36.06
2022-08-21T06:39:44.661Z,22.37
2022-08-21T06:40:48.295Z,34.31
2022-08-21T06:41:52.462Z,26.73
2022-08-21T06:42:58.928Z,28.31
2022-08-21T06:44:03.238Z,36.13
2022-08-21T06:45:07.626Z,32.13
2022-08-21T06:46:14.578Z,27.94
2022-08-21T06:47:21.079Z,29.56
2022-08-21T06:48:25.409Z,35.88
2022-08-21T06:49:29.492Z,53.69
2022-08-21T06:50:43.148Z,50.40
2022-08-21T06:51:41.835Z,36.44
2022-08-21T06:52:46.070Z,28.12
2022-08-21T06:53:52.164Z,31.94
2022-08-21T06:54:56.157Z,48.31
2022-08-21T06:56:00.161Z,42.56
2022-08-21T06:57:04.459Z,42.00
2022-08-21T06:58:09.020Z,26.50
2022-08-21T06:59:15.826Z,31.56
2022-08-21T07:00:21.275Z,34.75
2022-08-21T07:01:26.915Z,31.94
2022-08-21T07:02:30.952Z,28.19
2022-08-21T07:03:39.843Z,36.63
2022-08-21T07:04:44.009Z,36.06
2022-08-21T07:05:48.122Z,35.81
2022-08-21T07:06:52.369Z,34.31
2022-08-21T07:07:56.901Z,38.75
2022-08-21T07:09:04.493Z,61.88
2022-08-21T07:10:22.361Z,38.31
2022-08-21T07:11:22.124Z,60.88
2022-08-21T07:12:26.172Z,53.13
2022-08-21T07:13:33.750Z,47.73
2022-08-21T07:14:36.561Z,42.94
2022-08-21T07:15:40.705Z,53.80
2022-08-21T07:16:44.987Z,44.00
2022-08-21T07:17:48.957Z,55.67
2022-08-21T07:18:57.756Z,61.13
2022-08-21T07:20:00.505Z,59.75
2022-08-21T07:21:08.249Z,42.81
2022-08-21T07:22:13.507Z,58.19
2022-08-21T07:23:29.593Z,64.47
2022-08-21T07:24:33.639Z,99.62
2022-08-21T07:25:37.863Z,98.20
2022-08-21T07:26:42.867Z,79.80
2022-08-21T07:27:48.501Z,53.06
2022-08-21T07:28:53.415Z,43.33
2022-08-21T07:30:02.559Z,42.81
2022-08-21T07:31:08.290Z,43.73
2022-08-21T07:32:13.272Z,42.94
2022-08-21T07:33:17.462Z,41.60
2022-08-21T07:34:21.666Z,42.19
2022-08-21T07:35:27.683Z,42.67
2022-08-21T07:36:33.319Z,33.50
2022-08-21T07:37:39.038Z,40.63
2022-08-21T07:38:43.115Z,41.53
2022-08-21T07:39:47.327Z,45.63
2022-08-21T07:40:56.367Z,44.67
2022-08-21T07:42:02.940Z,57.07
2022-08-21T07:43:06.167Z,48.00
2022-08-21T07:44:10.166Z,35.75
2022-08-21T07:45:18.604Z,56.06
2022-08-21T07:46:25.708Z,40.06
2022-08-21T07:47:42.358Z,45.07
2022-08-21T07:48:36.841Z,76.87
2022-08-21T07:49:40.909Z,49.47
2022-08-21T07:50:45.533Z,56.88
2022-08-21T07:51:50.958Z,46.25
2022-08-21T07:52:55.055Z,66.73
2022-08-21T07:54:00.845Z,41.31
2022-08-21T07:55:06.650Z,39.69
2022-08-21T07:56:12.452Z,38.25
2022-08-21T07:57:19.277Z,39.53
2022-08-21T07:58:25.138Z,43.63
2022-08-21T07:59:29.948Z,31.12
2022-08-21T08:00:35.160Z,30.62
2022-08-21T08:01:39.220Z,31.69
2022-08-21T08:02:49.199Z,26.87
2022-08-21T08:03:53.334Z,33.87
2022-08-21T08:05:02.578Z,26.06
2022-08-21T08:06:07.865Z,24.81
2022-08-21T08:07:14.572Z,31.12
2022-08-21T08:08:18.733Z,28.81
2022-08-21T08:09:22.795Z,28.44
2022-08-21T08:10:30.383Z,23.69
2022-08-21T08:11:47.471Z,29.69
2022-08-21T08:12:43.562Z,30.19
2022-08-21T08:13:52.683Z,28.25
2022-08-21T08:14:59.133Z,31.20
2022-08-21T08:16:04.888Z,30.50
2022-08-21T08:17:08.922Z,29.00
2022-08-21T08:18:12.998Z,22.19
2022-08-21T08:19:16.991Z,33.69
2022-08-21T08:20:23.804Z,26.19
2022-08-21T08:21:28.235Z,15.00
2022-08-21T08:22:32.508Z,20.12
2022-08-21T08:23:39.957Z,28.50
2022-08-21T08:24:45.446Z,18.75
2022-08-21T08:25:49.479Z,25.75
2022-08-21T08:26:53.983Z,30.69
2022-08-21T08:27:58.422Z,26.62
2022-08-21T08:29:17.837Z,29.25
2022-08-21T08:30:11.613Z,27.81
2022-08-21T08:31:15.722Z,21.81
2022-08-21T08:32:22.053Z,18.56
2022-08-21T08:33:26.139Z,16.37
2022-08-21T08:34:30.192Z,12.50
2022-08-21T08:35:34.380Z,7.81
2022-08-21T08:36:40.733Z,6.75
2022-08-21T08:37:52.194Z,8.63
2022-08-21T08:38:53.552Z,11.69
2022-08-21T08:39:57.807Z,15.00
2022-08-21T08:41:11.026Z,9.56
2022-08-21T08:42:33.386Z,8.63
2022-08-21T08:43:37.474Z,7.06
2022-08-21T08:44:45.661Z,11.00
2022-08-21T08:45:59.311Z,14.00
2022-08-21T08:47:04.817Z,12.19
2022-08-21T08:48:14.043Z,9.50
2022-08-21T08:49:21.734Z,15.69
2022-08-21T08:50:43.889Z,10.19
2022-08-21T08:51:59.920Z,9.69
2022-08-21T08:53:09.678Z,10.38
2022-08-21T08:54:22.718Z,13.75
2022-08-21T08:55:29.709Z,9.88
2022-08-21T08:56:35.457Z,13.50
2022-08-21T08:57:44.066Z,8.81
2022-08-21T08:58:52.887Z,9.38
2022-08-21T09:00:00.345Z,13.56
2022-08-21T09:01:10.511Z,12.94
2022-08-21T09:02:17.419Z,12.63
2022-08-21T09:03:24.991Z,10.25
2022-08-21T09:04:30.216Z,10.31
2022-08-21T09:06:02.608Z,13.50
2022-08-21T09:07:15.269Z,14.75
2022-08-21T09:08:41.613Z,10.81
2022-08-21T09:10:21.486Z,13.13
2022-08-21T09:11:34.449Z,9.63
2022-08-21T09:12:59.552Z,9.81
2022-08-21T09:14:08.014Z,9.81
2022-08-21T09:15:32.991Z,12.31
2022-08-21T09:16:55.262Z,10.13
2022-08-21T09:18:24.799Z,8.75
2022-08-21T09:19:48.760Z,14.13
2022-08-21T09:21:07.579Z,9.13
2022-08-21T09:22:17.531Z,12.56
2022-08-21T09:23:39.833Z,13.62
2022-08-21T09:25:10.836Z,24.31
2022-08-21T09:26:20.648Z,14.56
2022-08-21T09:27:24.787Z,17.50
2022-08-21T09:28:30.377Z,14.25
2022-08-21T09:29:41.584Z,16.87
2022-08-21T09:30:45.917Z,16.06
2022-08-21T09:31:49.975Z,10.44
2022-08-21T09:32:54.122Z,25.69
2022-08-21T09:34:06.909Z,12.56
2022-08-21T09:35:18.736Z,10.75
2022-08-21T09:36:43.771Z,12.44
2022-08-21T09:37:59.410Z,13.81
2022-08-21T09:39:04.134Z,8.75
2022-08-21T09:40:23.446Z,10.25
2022-08-21T09:41:33.228Z,11.31
2022-08-21T09:42:37.376Z,13.38
2022-08-21T09:43:41.669Z,10.56
2022-08-21T09:44:52.579Z,10.63
2022-08-21T09:46:09.303Z,10.44
2022-08-21T09:47:17.798Z,13.19
2022-08-21T09:48:26.993Z,9.50
2022-08-21T09:49:36.248Z,8.56
2022-08-21T09:50:53.343Z,25.37
2022-08-21T09:51:54.708Z,10.88
2022-08-21T09:53:03.142Z,10.94
2022-08-21T09:54:10.195Z,14.87
2022-08-21T09:55:25.959Z,11.25
2022-08-21T09:56:38.534Z,9.44
2022-08-21T09:57:50.623Z,11.38
2022-08-21T09:58:52.874Z,14.63
2022-08-21T10:00:03.665Z,12.50
2022-08-21T10:01:07.430Z,9.50
2022-08-21T10:02:26.306Z,13.50
2022-08-21T10:03:30.487Z,13.00
2022-08-21T10:04:36.803Z,17.19
2022-08-21T10:05:47.874Z,10.31
2022-08-21T10:06:48.946Z,10.38
2022-08-21T10:07:54.842Z,17.19
2022-08-21T10:09:21.086Z,11.44
2022-08-21T10:10:27.125Z,11.63
2022-08-21T10:11:32.657Z,14.38
2022-08-21T10:13:01.850Z,10.13
2022-08-21T10:14:17.802Z,6.87
2022-08-21T10:15:36.618Z,8.06
2022-08-21T10:16:45.168Z,9.44
2022-08-21T10:18:00.711Z,14.75
2022-08-21T10:19:12.512Z,10.13
2022-08-21T10:20:22.190Z,10.56
2022-08-21T10:21:39.732Z,10.88
2022-08-21T10:22:46.784Z,12.00
2022-08-21T10:24:05.823Z,10.81
2022-08-21T10:25:33.758Z,12.63
2022-08-21T10:26:55.713Z,7.94
2022-08-21T10:28:06.608Z,12.50
2022-08-21T10:29:29.906Z,12.37
2022-08-21T10:30:51.291Z,14.44
2022-08-21T10:32:25.575Z,12.63
2022-08-21T10:33:39.569Z,10.38
2022-08-21T10:34:51.191Z,11.38
2022-08-21T10:36:10.935Z,11.31
2022-08-21T10:37:31.005Z,13.13
2022-08-21T10:39:02.320Z,12.69
2022-08-21T10:40:01.142Z,13.31
2022-08-21T10:41:24.685Z,12.50
2022-08-21T10:42:47.724Z,10.69
2022-08-21T10:44:12.400Z,8.94
2022-08-21T10:45:28.034Z,11.88
2022-08-21T10:46:49.214Z,14.56
2022-08-21T10:47:58.996Z,12.44
2022-08-21T10:49:06.108Z,14.38
2022-08-21T10:50:20.465Z,12.94
2022-08-21T10:51:45.351Z,9.63
2022-08-21T10:52:55.030Z,15.56
2022-08-21T10:54:23.477Z,13.56
2022-08-21T10:55:49.858Z,13.88
2022-08-21T10:56:46.826Z,12.56
2022-08-21T10:57:59.846Z,15.00
2022-08-21T10:59:23.054Z,14.63
2022-08-21T11:00:36.606Z,10.31
2022-08-21T11:01:59.734Z,12.00
2022-08-21T11:03:09.311Z,13.19
2022-08-21T11:04:19.280Z,15.19
2022-08-21T11:05:38.247Z,14.75
2022-08-21T11:06:45.717Z,11.94
2022-08-21T11:08:09.921Z,15.25
2022-08-21T11:09:16.999Z,13.69
2022-08-21T11:10:31.550Z,13.62
2022-08-21T11:11:43.838Z,11.38
2022-08-21T11:12:52.002Z,10.94
2022-08-21T11:14:00.580Z,12.88
2022-08-21T11:15:28.704Z,12.25
2022-08-21T11:16:29.239Z,13.62
2022-08-21T11:17:44.807Z,13.38
2022-08-21T11:19:05.844Z,13.50
2022-08-21T11:20:21.739Z,13.56
2022-08-21T11:21:51.254Z,13.75
2022-08-21T11:23:04.590Z,14.13
2022-08-21T11:24:20.714Z,10.06
2022-08-21T11:25:37.247Z,14.56
2022-08-21T11:27:02.215Z,16.50
2022-08-21T11:28:14.906Z,11.75
2022-08-21T11:29:27.001Z,9.19
2022-08-21T11:30:32.209Z,13.38
2022-08-21T11:31:42.061Z,9.00
2022-08-21T11:32:59.275Z,8.25
2022-08-21T11:34:31.701Z,13.25
2022-08-21T11:35:53.288Z,12.81
2022-08-21T11:37:04.612Z,10.94
2022-08-21T11:38:35.514Z,11.06
2022-08-21T11:40:00.323Z,12.37
2022-08-21T11:41:23.556Z,11.44
2022-08-21T11:42:45.418Z,12.81
2022-08-21T11:43:58.469Z,11.44
2022-08-21T11:45:41.554Z,7.75
2022-08-21T11:46:51.286Z,11.56
2022-08-21T11:48:30.955Z,13.13
2022-08-21T11:49:52.587Z,9.88
2022-08-21T11:50:58.597Z,13.00
2022-08-21T11:52:17.904Z,16.56
2022-08-21T11:53:33.814Z,9.44
2022-08-21T11:54:45.119Z,11.25
2022-08-21T11:55:52.138Z,13.38
2022-08-21T11:57:05.122Z,12.50
2022-08-21T11:58:20.760Z,12.00
2022-08-21T11:59:27.739Z,10.56
2022-08-21T12:00:37.608Z,10.88
2022-08-21T12:01:44.916Z,13.81
2022-08-21T12:02:52.005Z,12.37
2022-08-21T12:04:07.776Z,10.75
2022-08-21T12:05:14.814Z,12.63
2022-08-21T12:06:30.265Z,12.50
2022-08-21T12:07:36.502Z,9.81
2022-08-21T12:08:48.275Z,11.25
2022-08-21T12:09:58.360Z,7.50
2022-08-21T12:11:23.219Z,10.69
2022-08-21T12:12:36.221Z,11.06
2022-08-21T12:13:43.578Z,12.00
2022-08-21T12:14:51.880Z,14.75
2022-08-21T12:16:07.254Z,13.00
2022-08-21T12:17:24.538Z,13.50
2022-08-21T12:18:32.809Z,14.50
2022-08-21T12:19:37.297Z,11.88
2022-08-21T12:20:50.235Z,9.38
2022-08-21T12:21:53.568Z,11.19
2022-08-21T12:23:12.679Z,12.31
2022-08-21T12:24:17.816Z,10.06
2022-08-21T12:25:23.019Z,11.06
2022-08-21T12:26:30.119Z,9.00
2022-08-21T12:27:48.983Z,12.44
2022-08-21T12:28:54.621Z,10.69
2022-08-21T12:30:01.623Z,11.94
2022-08-21T12:31:07.256Z,10.38
2022-08-21T12:32:21.682Z,9.13
2022-08-21T12:33:28.709Z,15.69
2022-08-21T12:34:38.405Z,12.19
2022-08-21T12:35:44.681Z,9.69
2022-08-21T12:37:05.829Z,10.19
2022-08-21T12:38:10.504Z,10.56
2022-08-21T12:39:20.101Z,10.19
2022-08-21T12:40:33.330Z,10.25
2022-08-21T12:41:41.818Z,9.19
2022-08-21T12:42:58.264Z,12.19
2022-08-21T12:44:02.328Z,14.06
2022-08-21T12:45:08.190Z,9.94
2022-08-21T12:46:24.907Z,12.69
2022-08-21T12:47:34.859Z,13.56
2022-08-21T12:48:44.667Z,11.94
2022-08-21T12:49:54.331Z,12.06
2022-08-21T12:51:01.428Z,9.25
2022-08-21T12:54:53.193Z,13.88
2022-08-21T12:56:02.188Z,19.44
2022-08-21T12:57:08.096Z,7.19
2022-08-21T12:58:23.485Z,10.94
2022-08-21T12:59:27.985Z,8.88
2022-08-21T13:00:32.235Z,6.00
2022-08-21T13:01:42.256Z,10.44
2022-08-21T13:02:49.319Z,12.50
2022-08-21T13:04:04.081Z,11.81
2022-08-21T13:05:05.696Z,10.75
2022-08-21T13:06:12.878Z,10.13
2022-08-21T13:07:22.570Z,8.69
2022-08-21T13:08:29.058Z,9.63
2022-08-21T13:09:33.300Z,10.00
2022-08-21T13:10:40.253Z,10.44
2022-08-21T13:11:47.153Z,7.94
2022-08-21T13:12:58.815Z,14.25
2022-08-21T13:14:06.231Z,17.37
2022-08-21T13:15:12.419Z,15.25
2022-08-21T13:16:28.404Z,7.00
2022-08-21T13:17:37.184Z,23.25
2022-08-21T13:18:54.210Z,18.12
2022-08-21T13:20:02.835Z,19.37
2022-08-21T13:21:11.780Z,12.31
2022-08-21T13:22:34.903Z,10.63
2022-08-21T13:23:29.790Z,11.25
2022-08-21T13:24:42.699Z,9.06
2022-08-21T13:25:43.828Z,10.75
2022-08-21T13:26:50.100Z,29.63
2022-08-21T13:28:08.718Z,14.00
2022-08-21T13:29:15.722Z,14.63
2022-08-21T13:30:22.419Z,20.00
2022-08-21T13:31:30.832Z,9.00
2022-08-21T13:32:40.130Z,13.88
2022-08-21T13:33:46.444Z,16.25
2022-08-21T13:34:53.916Z,9.19
2022-08-21T13:36:14.622Z,14.06
2022-08-21T13:37:19.529Z,13.44
2022-08-21T13:38:27.209Z,14.94
2022-08-21T13:39:32.209Z,21.31
2022-08-21T13:40:52.733Z,14.94
2022-08-21T13:42:02.227Z,10.44
2022-08-21T13:43:11.019Z,9.31
2022-08-21T13:44:23.914Z,13.25
2022-08-21T13:45:30.883Z,14.19
2022-08-21T13:46:37.921Z,13.75
2022-08-21T13:47:42.617Z,12.63
2022-08-21T13:48:46.916Z,9.94
2022-08-21T13:49:59.165Z,10.25
2022-08-21T13:51:02.678Z,12.63
2022-08-21T13:52:15.671Z,6.75
2022-08-21T13:53:33.145Z,8.13
2022-08-21T13:54:42.628Z,12.88
2022-08-21T13:55:59.944Z,6.75
2022-08-21T13:57:01.484Z,10.00
2022-08-21T13:58:07.107Z,7.81
2022-08-21T13:59:13.420Z,8.44
2022-08-21T14:00:25.360Z,10.94
2022-08-21T14:01:41.183Z,13.50
2022-08-21T14:02:48.720Z,8.00
2022-08-21T14:03:57.405Z,11.19
2022-08-21T14:05:05.691Z,18.81
2022-08-21T14:06:22.440Z,7.44
2022-08-21T14:07:29.505Z,12.06
2022-08-21T14:08:38.081Z,16.87
2022-08-21T14:09:45.697Z,14.25
2022-08-21T14:10:57.221Z,12.13
2022-08-21T14:12:03.552Z,12.81
2022-08-21T14:13:10.877Z,12.94
2022-08-21T14:14:29.481Z,20.44
2022-08-21T14:15:35.877Z,16.94
2022-08-21T14:16:47.577Z,12.69
2022-08-21T14:17:54.317Z,24.44
2022-08-21T14:19:04.394Z,23.75
2022-08-21T14:20:12.451Z,17.75
2022-08-21T14:21:22.025Z,26.31
2022-08-21T14:22:49.917Z,27.37
2022-08-21T14:23:51.836Z,19.94
2022-08-21T14:25:24.788Z,26.81
2022-08-21T14:26:29.647Z,22.25
2022-08-21T14:27:26.568Z,21.87
2022-08-21T14:28:43.953Z,25.31
2022-08-21T14:29:49.834Z,28.44
2022-08-21T14:30:56.096Z,31.44
2022-08-21T14:32:02.573Z,32.44
2022-08-21T14:33:18.457Z,27.69
2022-08-21T14:34:26.662Z,24.69
2022-08-21T14:35:31.648Z,32.25
2022-08-21T14:36:37.718Z,22.62
2022-08-21T14:37:45.761Z,32.50
2022-08-21T14:38:49.988Z,33.56
2022-08-21T14:39:54.189Z,35.25
2022-08-21T14:41:04.242Z,37.25
2022-08-21T14:42:08.398Z,33.94
2022-08-21T14:43:12.486Z,31.19
2022-08-21T14:44:20.031Z,29.19